Flight Track Log - Related Links

Times and Time Zones

All times are in EDT time to prevent confusion due to time zone crossing. See the N411AJ flight status page for this flight to view local times or setup timezone preferences in your user account.

Time Position Orientation Groundspeed Altitude Reporting Facility
EDT Latitude Longitude Course Direction KTS MPH feet Rate Location/Type
Sat 03:20:17 PM 47.7500 -116.8519 86° East 158 182 5,300  Level Seattle Center
Sat 03:21:18 PM 47.7533 -116.7833 86° East 182 209 9,300 3,590 Climbing Seattle Center
Sat 03:22:19 PM 47.7681 -116.7011 75° East 231 266 12,600 2,852 Climbing Seattle Center
Sat 03:23:20 PM 47.7917 -116.5817 74° East 308 354 15,100 2,164 Climbing Seattle Center
Sat 03:24:21 PM 47.8203 -116.4275 74° East 393 452 17,000 934 Climbing Seattle Center
Sat 03:25:22 PM 47.8536 -116.2533 74° East 436 502 17,000  Level Seattle Center
Sat 03:26:23 PM 47.8894 -116.0436 76° East 439 505 17,000  Level Seattle Center
Sat 03:27:24 PM 47.9208 -115.8700 75° East 435 501 17,000  Level Seattle Center
Sat 03:28:25 PM 47.9525 -115.6986 75° East 432 497 17,000  Level Seattle Center
Sat 03:29:26 PM 47.9839 -115.5258 75° East 432 497 17,000  Level Seattle Center
Sat 03:30:28 PM 48.0139 -115.3533 75° East 432 497 17,000 -1,220 Level Seattle Center
Sat 03:31:29 PM 48.0464 -115.1747 75° East 410 472 14,500 -2,459 Descending Seattle Center
Sat 03:32:30 PM 48.0392 -115.0336 94° East 365 420 12,000 -2,361 Descending Seattle Center
Sat 03:33:31 PM 48.0075 -114.9125 111° Southeast 326 375 9,700 -1,475 Descending Seattle Center
Sat 03:34:32 PM 47.9817 -114.8114 111° Southeast 276 318 9,000 -344 Descending Seattle Center
Sat 03:35:33 PM 47.9589 -114.7225 111° Southeast 241 277 9,000  Level Seattle Center
Sat 03:36:34 PM 47.9678 -114.6233 82° East 262 302 9,000  Level Seattle Center
Sat 03:37:35 PM 48.0308 -114.5406 41° Northeast 287 330 9,000 -622 Level Seattle Center
Sat 03:38:49 PM 48.1103 -114.4656 32° Northeast 281 323 7,600 -1,156 Descending Salt Lake Center
Sat 03:39:50 PM 48.1597 -114.4128 35° Northeast 242 278 6,400 -1,122 Descending Salt Lake Center
Sat 03:40:52 PM 48.2019 -114.3689 35° Northeast 210 242 5,300 -927 Descending Salt Lake Center
Sat 03:41:53 PM 48.2369 -114.3325 35° Northeast 180 207 4,500 -780 Descending Salt Lake Center
Sat 03:42:55 PM 48.2706 -114.2972 35° Northeast 161 185 3,700 -732 Descending Salt Lake Center
Sat 03:43:56 PM 48.3097 -114.2564 35° Northeast 150 173 3,000 -689 Descending Salt Lake Center

Login

Don't have an account? Register now (free) for customized features, flight alerts, and more!